createdAt,value
2023-02-02T00:00:18.771Z,95894
2023-02-02T00:01:21.262Z,95898.3
2023-02-02T00:02:23.918Z,95875.1
2023-02-02T00:03:26.510Z,95880.1
2023-02-02T00:04:29.019Z,95883.7
2023-02-02T00:05:30.963Z,95880.6
2023-02-02T00:06:33.597Z,95888.4
2023-02-02T00:07:36.159Z,95872.2
2023-02-02T00:08:38.663Z,95879.2
2023-02-02T00:09:41.174Z,95875.1
2023-02-02T00:10:43.396Z,95876.1
2023-02-02T00:11:45.922Z,95868.9
2023-02-02T00:12:48.404Z,95870.8
2023-02-02T00:13:50.847Z,95865.8
2023-02-02T00:14:53.367Z,95873.3
2023-02-02T00:15:55.776Z,95874.2
2023-02-02T00:16:58.057Z,95875
2023-02-02T00:18:00.297Z,95882.8
2023-02-02T00:19:02.832Z,95875.4
2023-02-02T00:20:04.769Z,95875.3
2023-02-02T00:21:07.303Z,95878
2023-02-02T00:22:09.899Z,95879.2
2023-02-02T00:23:12.153Z,95862.5
2023-02-02T00:24:14.663Z,95870.8
2023-02-02T00:25:17.164Z,95867
2023-02-02T00:26:19.878Z,95872.9
2023-02-02T00:27:22.413Z,95888.5
2023-02-02T00:28:24.726Z,95871.2
2023-02-02T00:29:27.256Z,95868.1
2023-02-02T00:30:29.913Z,95860.7
2023-02-02T00:31:32.709Z,95862.4
2023-02-02T00:32:35.263Z,95863.6
2023-02-02T00:33:37.474Z,95871
2023-02-02T00:34:40.007Z,95865.6
2023-02-02T00:35:42.508Z,95866.6
2023-02-02T00:36:45.022Z,95857.6
2023-02-02T00:37:47.351Z,95861
2023-02-02T00:38:49.889Z,95867.4
2023-02-02T00:39:52.442Z,95859.3
2023-02-02T00:40:54.940Z,95860.3
2023-02-02T00:41:57.531Z,95860.9
2023-02-02T00:43:00.199Z,95863.8
2023-02-02T00:44:02.703Z,95855.4
2023-02-02T00:45:04.931Z,95857.1
2023-02-02T00:46:07.749Z,95856.9
2023-02-02T00:47:10.110Z,95863.4
2023-02-02T00:48:12.352Z,95859.7
2023-02-02T00:49:14.851Z,95866
2023-02-02T00:50:17.394Z,95867.1
2023-02-02T00:51:19.297Z,95868.4
2023-02-02T00:52:21.802Z,95858.7
2023-02-02T00:53:24.394Z,95864.5
2023-02-02T00:54:26.921Z,95866.3
2023-02-02T00:55:29.417Z,95863
2023-02-02T00:56:31.615Z,95870.8
2023-02-02T00:57:34.193Z,95865.8
2023-02-02T00:58:36.704Z,95866.4
2023-02-02T00:59:39.196Z,95859
2023-02-02T01:00:42.087Z,95861.3
2023-02-02T01:01:44.995Z,95862.7
2023-02-02T01:02:47.322Z,95866.2
2023-02-02T01:03:49.559Z,95869
2023-02-02T01:04:52.043Z,95869.2
2023-02-02T01:05:54.552Z,95865
2023-02-02T01:06:57.049Z,95870.2
2023-02-02T01:07:59.560Z,95870.7
2023-02-02T01:09:02.111Z,95855
2023-02-02T01:10:04.696Z,95882.2
2023-02-02T01:11:06.638Z,95865
2023-02-02T01:12:08.883Z,95863.3
2023-02-02T01:13:11.404Z,95869.7
2023-02-02T01:14:13.909Z,95865.1
2023-02-02T01:15:16.182Z,95856.2
2023-02-02T01:16:18.541Z,95858.7
2023-02-02T01:17:21.200Z,95863.5
2023-02-02T01:18:23.695Z,95868.1
2023-02-02T01:19:26.194Z,95867.3
2023-02-02T01:20:28.426Z,95858.6
2023-02-02T01:21:30.944Z,95871
2023-02-02T01:22:33.448Z,95852.9
2023-02-02T01:23:36.068Z,95854.7
2023-02-02T01:24:38.669Z,95861.8
2023-02-02T01:25:41.182Z,95856.4
2023-02-02T01:26:43.753Z,95857.8
2023-02-02T01:27:46.367Z,95849.9
2023-02-02T01:28:48.890Z,95854.7
2023-02-02T01:29:51.124Z,95873
2023-02-02T01:30:53.529Z,95859.9
2023-02-02T01:31:56.394Z,95859.9
2023-02-02T01:32:58.982Z,95860.2
2023-02-02T01:34:01.551Z,95846.7
2023-02-02T01:35:03.779Z,95863.1
2023-02-02T01:36:05.428Z,95855.1
2023-02-02T01:37:07.673Z,95862.5
2023-02-02T01:38:10.175Z,95871.8
2023-02-02T01:39:12.427Z,95849.2
2023-02-02T01:40:15.035Z,95848.7
2023-02-02T01:41:32.220Z,95862.7
2023-02-02T01:42:34.745Z,95854.3
2023-02-02T01:43:37.231Z,95862
2023-02-02T01:44:39.147Z,95854.6
2023-02-02T01:45:41.786Z,95851.9
2023-02-02T01:46:43.763Z,95864.9
2023-02-02T01:47:46.261Z,95858.6
2023-02-02T01:48:48.756Z,95852.2
2023-02-02T01:49:51.295Z,95849.4
2023-02-02T01:50:53.534Z,95848.7
2023-02-02T01:51:55.752Z,95847.5
2023-02-02T01:52:58.260Z,95843.2
2023-02-02T01:54:00.494Z,95836.1
2023-02-02T01:55:03.179Z,95846.2
2023-02-02T01:56:05.481Z,95854.1
2023-02-02T01:57:08.000Z,95845
2023-02-02T01:58:10.516Z,95827.4
2023-02-02T01:59:12.770Z,95848.1
2023-02-02T02:00:15.002Z,95840
2023-02-02T02:01:17.921Z,95846.1
2023-02-02T02:02:20.621Z,95839.9
2023-02-02T02:03:23.007Z,95858.1
2023-02-02T02:04:25.511Z,95853.3
2023-02-02T02:05:28.014Z,95850.6
2023-02-02T02:06:30.531Z,95850.5
2023-02-02T02:07:32.726Z,95846.6
2023-02-02T02:08:34.963Z,95838
2023-02-02T02:09:37.512Z,95818.9
2023-02-02T02:10:39.707Z,95823.1
2023-02-02T02:11:41.996Z,95835
2023-02-02T02:12:44.240Z,95841.6
2023-02-02T02:13:46.492Z,95840.3
2023-02-02T02:14:48.716Z,95835.2
2023-02-02T02:15:51.202Z,95836.5
2023-02-02T02:16:54.084Z,95840.5
2023-02-02T02:17:56.460Z,95825.2
2023-02-02T02:18:58.961Z,95820
2023-02-02T02:20:01.477Z,95846.4
2023-02-02T02:21:03.712Z,95830.7
2023-02-02T02:22:06.231Z,95821.4
2023-02-02T02:23:08.723Z,95834.5
2023-02-02T02:24:11.249Z,95842.1
2023-02-02T02:25:13.205Z,95823.4
2023-02-02T02:26:15.704Z,95844.1
2023-02-02T02:27:18.296Z,95840.7
2023-02-02T02:28:20.847Z,95836.9
2023-02-02T02:29:23.071Z,95846.5
2023-02-02T02:30:25.017Z,95836.7
2023-02-02T02:31:28.080Z,95820.2
2023-02-02T02:32:30.777Z,95823.7
2023-02-02T02:33:33.284Z,95817.9
2023-02-02T02:34:35.522Z,95827.4
2023-02-02T02:35:38.028Z,95816.8
2023-02-02T02:36:40.231Z,95827.7
2023-02-02T02:37:42.736Z,95817.7
2023-02-02T02:38:44.967Z,95818
2023-02-02T02:39:46.966Z,95818.2
2023-02-02T02:40:49.463Z,95828.6
2023-02-02T02:41:51.685Z,95835.9
2023-02-02T02:42:53.985Z,95817.1
2023-02-02T02:43:56.501Z,95826.1
2023-02-02T02:44:58.742Z,95817.5
2023-02-02T02:46:01.224Z,95819.7
2023-02-02T02:47:03.855Z,95813.5
2023-02-02T02:48:06.369Z,95810.3
2023-02-02T02:49:08.886Z,95810.3
2023-02-02T02:50:10.839Z,95798.4
2023-02-02T02:51:13.044Z,95802.2
2023-02-02T02:52:15.548Z,95831.5
2023-02-02T02:53:18.093Z,95809.6
2023-02-02T02:54:20.635Z,95816.8
2023-02-02T02:55:24.936Z,95815.5
2023-02-02T02:56:27.963Z,95813.1
2023-02-02T02:57:30.453Z,95812.3
2023-02-02T02:58:32.747Z,95819.6
2023-02-02T02:59:35.267Z,95820
2023-02-02T03:00:37.204Z,95823.6
2023-02-02T03:01:39.839Z,95815.8
2023-02-02T03:02:42.629Z,95814.7
2023-02-02T03:03:45.198Z,95819.8
2023-02-02T03:04:47.725Z,95816.6
2023-02-02T03:05:50.236Z,95822.8
2023-02-02T03:06:52.509Z,95823
2023-02-02T03:07:55.017Z,95830.1
2023-02-02T03:08:57.540Z,95834
2023-02-02T03:10:00.038Z,95832.9
2023-02-02T03:11:02.548Z,95847.5
2023-02-02T03:12:05.090Z,95840.4
2023-02-02T03:13:07.582Z,95836.9
2023-02-02T03:14:10.213Z,95835.6
2023-02-02T03:15:12.447Z,95813.6
2023-02-02T03:16:15.008Z,95826.5
2023-02-02T03:17:17.513Z,95840.4
2023-02-02T03:18:20.023Z,95837.3
2023-02-02T03:19:22.254Z,95824.1
2023-02-02T03:20:24.772Z,95811.8
2023-02-02T03:21:27.099Z,95813.6
2023-02-02T03:22:29.322Z,95828.5
2023-02-02T03:23:31.806Z,95824
2023-02-02T03:24:34.310Z,95825
2023-02-02T03:25:36.543Z,95840.2
2023-02-02T03:26:39.268Z,95848.3
2023-02-02T03:27:41.884Z,95827.6
2023-02-02T03:28:44.149Z,95825.3
2023-02-02T03:29:46.401Z,95829.8
2023-02-02T03:30:49.394Z,95823
2023-02-02T03:31:52.044Z,95834.4
2023-02-02T03:32:54.548Z,95825.9
2023-02-02T03:33:57.050Z,95824.2
2023-02-02T03:34:59.552Z,95821.8
2023-02-02T03:36:02.083Z,95815.8
2023-02-02T03:37:04.760Z,95815.6
2023-02-02T03:38:06.696Z,95834.8
2023-02-02T03:39:08.942Z,95814.8
2023-02-02T03:40:10.880Z,95837.9
2023-02-02T03:41:13.392Z,95843.7
2023-02-02T03:42:15.915Z,95828.9
2023-02-02T03:43:18.401Z,95859.7
2023-02-02T03:44:20.886Z,95835.3
2023-02-02T03:45:24.520Z,95838.5
2023-02-02T03:46:27.931Z,95818.9
2023-02-02T03:47:30.278Z,95823.3
2023-02-02T03:48:32.774Z,95827.8
2023-02-02T03:49:35.005Z,95823.4
2023-02-02T03:50:37.531Z,95825.6
2023-02-02T03:51:40.027Z,95828.5
2023-02-02T03:52:42.528Z,95840.5
2023-02-02T03:53:44.957Z,95827.8
2023-02-02T03:54:46.901Z,95831
2023-02-02T03:55:48.886Z,95830.6
2023-02-02T03:56:51.401Z,95841.7
2023-02-02T03:57:53.654Z,95833.8
2023-02-02T03:58:56.162Z,95850.7
2023-02-02T03:59:58.383Z,95833.9
2023-02-02T04:01:00.661Z,95849.6
2023-02-02T04:02:03.226Z,95850.8
2023-02-02T04:03:06.099Z,95847.6
2023-02-02T04:04:08.724Z,95847.5
2023-02-02T04:05:10.956Z,95837.3
2023-02-02T04:06:13.175Z,95830.6
2023-02-02T04:07:15.672Z,95848.3
2023-02-02T04:08:18.172Z,95836.1
2023-02-02T04:09:20.409Z,95830.8
2023-02-02T04:10:22.658Z,95831.6
2023-02-02T04:11:24.877Z,95825.4
2023-02-02T04:12:26.811Z,95845
2023-02-02T04:13:29.397Z,95837.3
2023-02-02T04:14:31.916Z,95838.6
2023-02-02T04:15:34.138Z,95827.4
2023-02-02T04:16:36.758Z,95857.2
2023-02-02T04:17:39.269Z,95836.7
2023-02-02T04:18:40.930Z,95832
2023-02-02T04:19:43.446Z,95838.8
2023-02-02T04:20:45.937Z,95857.5
2023-02-02T04:21:48.561Z,95831
2023-02-02T04:22:51.225Z,95840
2023-02-02T04:23:53.813Z,95853.3
2023-02-02T04:24:56.337Z,95832.6
2023-02-02T04:25:58.069Z,95841.6
2023-02-02T04:27:00.281Z,95843.5
2023-02-02T04:28:02.808Z,95837.6
2023-02-02T04:29:05.357Z,95849
2023-02-02T04:30:07.856Z,95845.1
2023-02-02T04:31:10.579Z,95846.3
2023-02-02T04:32:13.347Z,95844.8
2023-02-02T04:33:15.900Z,95846.2
2023-02-02T04:34:18.133Z,95851.3
2023-02-02T04:35:20.351Z,95845.1
2023-02-02T04:36:22.280Z,95855.8
2023-02-02T04:37:24.794Z,95842
2023-02-02T04:38:27.015Z,95834.5
2023-02-02T04:39:29.520Z,95840.7
2023-02-02T04:40:32.203Z,95838.6
2023-02-02T04:41:34.787Z,95848.1
2023-02-02T04:42:37.348Z,95848.3
2023-02-02T04:43:39.385Z,95834
2023-02-02T04:44:41.357Z,95834.4
2023-02-02T04:45:43.847Z,95842.4
2023-02-02T04:46:45.920Z,95851.2
2023-02-02T04:47:48.487Z,95865.6
2023-02-02T04:48:51.010Z,95842.4
2023-02-02T04:49:53.246Z,95845.1
2023-02-02T04:50:55.765Z,95867.2
2023-02-02T04:51:58.000Z,95826.9
2023-02-02T04:53:00.254Z,95849.5
2023-02-02T04:54:02.763Z,95841.8
2023-02-02T04:55:05.261Z,95849.6
2023-02-02T04:56:07.503Z,95849.6
2023-02-02T04:57:09.765Z,95841.2
2023-02-02T04:58:12.318Z,95849.7
2023-02-02T04:59:15.110Z,95840
2023-02-02T05:00:17.701Z,95854.3
2023-02-02T05:01:20.314Z,95858.6
2023-02-02T05:02:22.993Z,95850.9
2023-02-02T05:03:25.573Z,95849.6
2023-02-02T05:04:27.480Z,95856
2023-02-02T05:05:30.161Z,95859.6
2023-02-02T05:06:32.381Z,95867.8
2023-02-02T05:07:34.618Z,95873.2
2023-02-02T05:08:37.115Z,95860.1
2023-02-02T05:09:39.624Z,95861.9
2023-02-02T05:10:41.581Z,95850.8
2023-02-02T05:11:44.089Z,95857.7
2023-02-02T05:12:46.611Z,95849.6
2023-02-02T05:13:48.851Z,95836.8
2023-02-02T05:14:51.380Z,95842.9
2023-02-02T05:15:53.940Z,95853.3
2023-02-02T05:16:56.301Z,95869.2
2023-02-02T05:17:58.638Z,95868.4
2023-02-02T05:19:01.303Z,95864
2023-02-02T05:20:03.873Z,95868.2
2023-02-02T05:21:06.407Z,95856.2
2023-02-02T05:22:08.372Z,95891.9
2023-02-02T05:23:10.901Z,95878.8
2023-02-02T05:24:13.421Z,95866.9
2023-02-02T05:25:15.949Z,95881.7
2023-02-02T05:26:18.433Z,95880.7
2023-02-02T05:27:21.104Z,95863.6
2023-02-02T05:28:23.353Z,95883.8
2023-02-02T05:29:25.857Z,95883.4
2023-02-02T05:30:28.384Z,95902.5
2023-02-02T05:31:31.125Z,95874.4
2023-02-02T05:32:33.443Z,95879.3
2023-02-02T05:33:35.678Z,95882.7
2023-02-02T05:34:37.959Z,95883.3
2023-02-02T05:35:40.489Z,95883.5
2023-02-02T05:36:43.002Z,95878
2023-02-02T05:37:45.500Z,95882.3
2023-02-02T05:38:48.772Z,95884.4
2023-02-02T05:39:51.343Z,95891.6
2023-02-02T05:40:53.705Z,95884.6
2023-02-02T05:41:55.947Z,95875.9
2023-02-02T05:42:59.074Z,95876
2023-02-02T05:44:01.479Z,95883.1
2023-02-02T05:45:04.092Z,95896.2
2023-02-02T05:46:06.882Z,95884.2
2023-02-02T05:47:09.336Z,95881.9
2023-02-02T05:48:11.848Z,95885.9
2023-02-02T05:49:14.371Z,95882.2
2023-02-02T05:50:16.939Z,95869.2
2023-02-02T05:51:19.304Z,95879.8
2023-02-02T05:52:21.558Z,95868
2023-02-02T05:53:24.077Z,95878.6
2023-02-02T05:54:26.722Z,95873.6
2023-02-02T05:55:29.262Z,95874.4
2023-02-02T05:56:31.519Z,95881.2
2023-02-02T05:57:34.050Z,95897.5
2023-02-02T05:58:36.584Z,95892.6
2023-02-02T05:59:39.113Z,95885.7
2023-02-02T06:00:41.353Z,95873.3
2023-02-02T06:01:43.871Z,95881.8
2023-02-02T06:02:46.286Z,95877.7
2023-02-02T06:03:49.367Z,95892.8
2023-02-02T06:04:51.576Z,95875.6
2023-02-02T06:05:54.219Z,95882.7
2023-02-02T06:06:56.753Z,95887.1
2023-02-02T06:07:59.281Z,95880.1
2023-02-02T06:09:01.542Z,95877.7
2023-02-02T06:10:04.083Z,95903.2
2023-02-02T06:11:06.026Z,95877.6
2023-02-02T06:12:08.255Z,95891.7
2023-02-02T06:13:10.504Z,95889
2023-02-02T06:14:13.027Z,95889.2
2023-02-02T06:15:15.692Z,95886.8
2023-02-02T06:16:18.506Z,95898
2023-02-02T06:17:21.049Z,95894.5
2023-02-02T06:18:23.618Z,95883.6
2023-02-02T06:19:26.118Z,95877
2023-02-02T06:20:28.644Z,95886.3
2023-02-02T06:21:31.266Z,95886.6
2023-02-02T06:22:33.840Z,95881.4
2023-02-02T06:23:36.375Z,95893.7
2023-02-02T06:24:38.622Z,95886.4
2023-02-02T06:25:40.840Z,95893.1
2023-02-02T06:26:43.620Z,95892.7
2023-02-02T06:27:45.669Z,95889.6
2023-02-02T06:28:47.922Z,95893.5
2023-02-02T06:29:50.142Z,95882.7
2023-02-02T06:30:52.969Z,95894.2
2023-02-02T06:31:55.851Z,95891
2023-02-02T06:32:58.604Z,95887.9
2023-02-02T06:34:00.880Z,95903.2
2023-02-02T06:35:03.385Z,95892.9
2023-02-02T06:36:05.918Z,95895.3
2023-02-02T06:37:08.745Z,95889.4
2023-02-02T06:38:11.256Z,95892
2023-02-02T06:39:13.501Z,95892.9
2023-02-02T06:40:15.744Z,95893.1
2023-02-02T06:41:17.974Z,95890.3
2023-02-02T06:43:24.866Z,95890.6
2023-02-02T06:44:27.385Z,95892
2023-02-02T06:45:29.911Z,95901.7
2023-02-02T06:46:32.787Z,95890.5
2023-02-02T06:47:35.478Z,95895.9
2023-02-02T06:48:37.465Z,95905.3
2023-02-02T06:49:40.028Z,95913.7
2023-02-02T06:50:42.539Z,95911.1
2023-02-02T06:51:44.779Z,95893.7
2023-02-02T06:52:47.364Z,95901.1
2023-02-02T06:53:49.702Z,95900.3
2023-02-02T06:54:51.721Z,95897.9
2023-02-02T06:55:53.961Z,95906.8
2023-02-02T06:56:56.455Z,95914.6
2023-02-02T06:57:58.676Z,95901.2
2023-02-02T06:59:01.208Z,95908.5
2023-02-02T07:00:03.474Z,95930.2
2023-02-02T07:01:05.988Z,95935.8
2023-02-02T07:02:08.454Z,95926.4
2023-02-02T07:03:10.663Z,95934.5
2023-02-02T07:04:13.216Z,95934.2
2023-02-02T07:05:15.747Z,95953.3
2023-02-02T07:06:18.011Z,95935.4
2023-02-02T07:07:20.303Z,95939
2023-02-02T07:08:22.936Z,95944.4
2023-02-02T07:09:25.605Z,95942.8
2023-02-02T07:12:38.360Z,95958.8
2023-02-02T07:13:40.676Z,95928.3
2023-02-02T07:14:43.183Z,95940.6
2023-02-02T07:15:45.311Z,95935
2023-02-02T07:16:47.723Z,95930.8
2023-02-02T07:17:49.953Z,95963.5
2023-02-02T07:18:52.485Z,95946.6
2023-02-02T07:19:55.039Z,95948.5
2023-02-02T07:20:57.310Z,95953.8
2023-02-02T07:21:59.825Z,95944
2023-02-02T07:23:02.367Z,95942.1
2023-02-02T07:24:05.110Z,95945.6
2023-02-02T07:25:07.439Z,95938.9
2023-02-02T07:26:09.947Z,95951.9
2023-02-02T07:27:12.480Z,95958.9
2023-02-02T07:28:14.968Z,95948.3
2023-02-02T07:29:17.240Z,95963.5
2023-02-02T07:30:19.313Z,95957.9
2023-02-02T07:31:21.914Z,95962.9
2023-02-02T07:32:24.210Z,95957.1
2023-02-02T07:33:26.738Z,95952.3
2023-02-02T07:34:28.970Z,95945.9
2023-02-02T07:35:31.218Z,95941
2023-02-02T07:36:33.880Z,95952.5
2023-02-02T07:37:36.729Z,95953.1
2023-02-02T07:38:43.898Z,95949.6
2023-02-02T07:39:46.503Z,95951.2
2023-02-02T07:40:49.031Z,95947.9
2023-02-02T07:41:50.976Z,95953.7
2023-02-02T07:42:53.525Z,95955.9
2023-02-02T07:43:56.086Z,95955.5
2023-02-02T07:46:06.132Z,95959.1
2023-02-02T07:47:08.176Z,95965
2023-02-02T07:48:10.401Z,95963.1
2023-02-02T07:49:12.655Z,95955.6
2023-02-02T07:50:14.994Z,95980.4
2023-02-02T07:51:17.576Z,95958.5
2023-02-02T07:52:20.165Z,95958.5
2023-02-02T07:53:22.427Z,95980.6
2023-02-02T07:54:24.720Z,95976.5
2023-02-02T07:55:27.729Z,95988.4
2023-02-02T07:56:30.804Z,95970.8
2023-02-02T07:57:33.307Z,95963.4
2023-02-02T07:58:35.823Z,95965.2
2023-02-02T07:59:38.053Z,95955.6
2023-02-02T08:00:40.496Z,95986.3
2023-02-02T08:01:43.279Z,95977.5
2023-02-02T08:02:46.121Z,95973.1
2023-02-02T08:03:48.136Z,95977.4
2023-02-02T08:04:50.641Z,95983.4
2023-02-02T08:05:53.151Z,95978.5
2023-02-02T08:06:55.380Z,95978.4
2023-02-02T08:07:57.924Z,95981.8
2023-02-02T08:09:00.457Z,95985.3
2023-02-02T08:10:02.152Z,95992.3
2023-02-02T08:11:04.577Z,95984.5
2023-02-02T08:12:06.866Z,95983.1
2023-02-02T08:13:09.147Z,95983.2
2023-02-02T08:14:11.425Z,95983.3
2023-02-02T08:15:14.033Z,96002.9
2023-02-02T08:16:17.049Z,95990.8
2023-02-02T08:17:19.775Z,95998.3
2023-02-02T08:18:22.297Z,95993
2023-02-02T08:19:24.541Z,95998.2
2023-02-02T08:20:27.056Z,95993.6
2023-02-02T08:21:29.309Z,96006.2
2023-02-02T08:22:31.524Z,96000.7
2023-02-02T08:23:33.781Z,96000.7
2023-02-02T08:24:36.018Z,96005.6
2023-02-02T08:25:38.527Z,96004.5
2023-02-02T08:26:41.017Z,95999.9
2023-02-02T08:27:43.342Z,96000
2023-02-02T08:28:45.840Z,96005.9
2023-02-02T08:29:48.106Z,96015.2
2023-02-02T08:30:50.767Z,96019.5
2023-02-02T08:31:53.756Z,96026.6
2023-02-02T08:32:56.401Z,96018.5
2023-02-02T08:33:58.783Z,96022.3
2023-02-02T08:35:01.116Z,96024.4
2023-02-02T08:36:03.654Z,96022.9
2023-02-02T08:37:06.167Z,96016.9
2023-02-02T08:38:08.688Z,96025.3
2023-02-02T08:39:10.982Z,96017
2023-02-02T08:40:13.495Z,96020.7
2023-02-02T08:41:16.210Z,96018.6
2023-02-02T08:42:18.852Z,96030.5
2023-02-02T08:43:21.523Z,96026.8
2023-02-02T08:46:34.249Z,96021.8
2023-02-02T08:47:37.311Z,96039.4
2023-02-02T08:48:40.369Z,96012.7
2023-02-02T08:49:42.934Z,96021
2023-02-02T08:50:44.587Z,96015.9
2023-02-02T08:51:46.575Z,96016.6
2023-02-02T08:52:48.848Z,96026.6
2023-02-02T08:53:51.068Z,96018.4
2023-02-02T08:54:53.659Z,96028.9
2023-02-02T08:55:55.886Z,96021.2
2023-02-02T08:56:58.413Z,96027.7
2023-02-02T08:58:00.985Z,96031.1
2023-02-02T08:59:03.559Z,96040
2023-02-02T09:00:05.517Z,96030.6
2023-02-02T09:01:08.443Z,96036.8
2023-02-02T09:02:11.050Z,96028.5
2023-02-02T09:03:13.351Z,96029.6
2023-02-02T09:04:15.888Z,96034.6
2023-02-02T09:05:18.417Z,96033.2
2023-02-02T09:06:20.661Z,96039.8
2023-02-02T09:07:23.202Z,96040.1
2023-02-02T09:08:25.656Z,96035.8
2023-02-02T09:09:28.284Z,96041.7
2023-02-02T09:10:30.542Z,96058.9
2023-02-02T09:11:32.787Z,96040.1
2023-02-02T09:12:35.313Z,96040.4
2023-02-02T09:13:37.951Z,96040.9
2023-02-02T09:14:40.485Z,96028.7
2023-02-02T09:15:42.725Z,96027.7
2023-02-02T09:16:45.491Z,96042.8
2023-02-02T09:17:48.187Z,96043.9
2023-02-02T09:18:50.504Z,96067
2023-02-02T09:19:52.775Z,96046
2023-02-02T09:20:55.354Z,96048.7
2023-02-02T09:21:57.877Z,96039.8
2023-02-02T09:23:00.412Z,96050.5
2023-02-02T09:24:02.943Z,96040
2023-02-02T09:25:05.471Z,96046.8
2023-02-02T09:26:07.751Z,96046.3
2023-02-02T09:27:09.995Z,96051.3
2023-02-02T09:28:12.246Z,96060.5
2023-02-02T09:29:14.555Z,96051.8
2023-02-02T09:30:17.117Z,96052.8
2023-02-02T09:31:19.630Z,96037.3
2023-02-02T09:32:22.019Z,96043.7
2023-02-02T09:33:24.011Z,96047.9
2023-02-02T09:34:26.614Z,96061
2023-02-02T09:35:28.940Z,96055.3
2023-02-02T09:36:31.577Z,96050.8
2023-02-02T09:37:34.150Z,96072.8
2023-02-02T09:38:36.750Z,96052
2023-02-02T09:39:39.244Z,96058.7
2023-02-02T09:40:41.501Z,96057.4
2023-02-02T09:41:44.063Z,96058.4
2023-02-02T09:42:46.592Z,96054.9
2023-02-02T09:43:49.142Z,96055.8
2023-02-02T09:44:51.759Z,96049.3
2023-02-02T09:45:53.846Z,96061
2023-02-02T09:46:56.501Z,96046.7
2023-02-02T09:47:58.246Z,96055.7
2023-02-02T09:49:00.773Z,96055.2
2023-02-02T09:50:03.302Z,96053.4
2023-02-02T09:51:05.821Z,96044.7
2023-02-02T09:52:08.062Z,96048.2
2023-02-02T09:53:10.300Z,96050.9
2023-02-02T09:54:12.866Z,96052.4
2023-02-02T09:55:15.122Z,96057.1
2023-02-02T09:56:17.389Z,96056.2
2023-02-02T09:57:19.948Z,96073.9
2023-02-02T09:58:22.179Z,96071.1
2023-02-02T09:59:26.186Z,96057.2
2023-02-02T10:00:28.510Z,96069.9
2023-02-02T10:01:31.453Z,96059.3
2023-02-02T10:02:34.147Z,96064.3
2023-02-02T10:03:36.629Z,96067.4
2023-02-02T10:04:38.649Z,96067.9
2023-02-02T10:05:41.173Z,96069.5
2023-02-02T10:06:43.698Z,96060.9
2023-02-02T10:07:46.303Z,96054.3
2023-02-02T10:08:48.853Z,96074.1
2023-02-02T10:09:50.876Z,96074.7
2023-02-02T10:10:53.435Z,96064.2
2023-02-02T10:11:55.410Z,96068.9
2023-02-02T10:12:58.289Z,96070.3
2023-02-02T10:14:00.593Z,96056.7
2023-02-02T10:15:03.549Z,96058.1
2023-02-02T10:16:06.535Z,96068.2
2023-02-02T10:17:09.130Z,96090.8
2023-02-02T10:18:11.654Z,96063.9
2023-02-02T10:19:13.897Z,96054.4
2023-02-02T10:20:16.402Z,96061.8
2023-02-02T10:21:18.921Z,96067.4
2023-02-02T10:22:21.422Z,96066.5
2023-02-02T10:23:23.132Z,96064.6
2023-02-02T10:24:26.027Z,96044.9
2023-02-02T10:25:28.612Z,96054.3
2023-02-02T10:26:30.670Z,96057.8
2023-02-02T10:27:33.021Z,96064.4
2023-02-02T10:28:35.550Z,96075.7
2023-02-02T10:30:43.350Z,96067
2023-02-02T10:31:46.887Z,96077.2
2023-02-02T10:32:49.529Z,96068
2023-02-02T10:33:51.776Z,96056.6
2023-02-02T10:35:59.333Z,96053
2023-02-02T10:37:01.877Z,96049.3
2023-02-02T10:38:04.192Z,96047.6
2023-02-02T10:39:06.436Z,96059.9
2023-02-02T10:40:09.012Z,96054.1
2023-02-02T10:41:11.481Z,96058.9
2023-02-02T10:42:13.746Z,96059.3
2023-02-02T10:43:15.983Z,96059.8
2023-02-02T10:44:18.627Z,96058.8
2023-02-02T10:45:20.933Z,96061.9
2023-02-02T10:46:23.291Z,96049
2023-02-02T10:47:26.081Z,96061
2023-02-02T10:48:28.744Z,96046.8
2023-02-02T10:49:30.782Z,96049.7
2023-02-02T10:50:33.134Z,96056.8
2023-02-02T10:51:35.853Z,96063
2023-02-02T10:52:38.115Z,96064.6
2023-02-02T10:53:40.615Z,96051.5
2023-02-02T10:55:48.099Z,96055.5
2023-02-02T10:56:50.651Z,96053.8
2023-02-02T10:57:52.953Z,96043.3
2023-02-02T10:58:55.499Z,96062
2023-02-02T10:59:57.472Z,96046.3
2023-02-02T11:00:59.720Z,96058.2
2023-02-02T11:03:07.645Z,96047.5
2023-02-02T11:04:10.268Z,96047.9
2023-02-02T11:05:12.781Z,96037.5
2023-02-02T11:06:15.305Z,96038.7
2023-02-02T11:07:17.548Z,96056.9
2023-02-02T11:08:20.079Z,96039.5
2023-02-02T11:09:24.119Z,96042.6
2023-02-02T11:10:28.103Z,96030.3
2023-02-02T11:11:31.338Z,96056
2023-02-02T11:12:34.802Z,96033.3
2023-02-02T11:13:37.046Z,96044.8
2023-02-02T11:15:44.439Z,96031.1
2023-02-02T11:16:47.500Z,96053.9
2023-02-02T11:17:50.171Z,96031.9
2023-02-02T11:18:52.289Z,96050.5
2023-02-02T11:19:54.544Z,96034.5
2023-02-02T11:20:57.123Z,96041.8
2023-02-02T11:21:59.633Z,96038.1
2023-02-02T11:23:02.137Z,96030.2
2023-02-02T11:24:04.415Z,96040
2023-02-02T11:25:06.653Z,96041.5
2023-02-02T11:26:09.054Z,96056.2
2023-02-02T11:27:11.136Z,96052.4
2023-02-02T11:28:13.735Z,96061.2
2023-02-02T11:29:15.752Z,96037.2
2023-02-02T11:30:18.011Z,96053
2023-02-02T11:31:21.046Z,96051.6
2023-02-02T11:32:23.421Z,96033.6
2023-02-02T11:33:25.928Z,96043.8
2023-02-02T11:34:28.272Z,96049
2023-02-02T11:35:30.532Z,96046.9
2023-02-02T11:36:32.756Z,96044.1
2023-02-02T11:37:35.067Z,96034.5
2023-02-02T11:38:37.330Z,96051.6
2023-02-02T11:39:39.888Z,96041.8
2023-02-02T11:40:42.207Z,96062.4
2023-02-02T11:41:44.436Z,96044.4
2023-02-02T11:42:46.976Z,96052.5
2023-02-02T11:43:49.228Z,96043.7
2023-02-02T11:44:51.572Z,96064.8
2023-02-02T11:45:54.065Z,96061.7
2023-02-02T11:46:56.960Z,96060.7
2023-02-02T11:47:59.336Z,96052.4
2023-02-02T11:49:01.932Z,96057.5
2023-02-02T11:50:07.347Z,96068
2023-02-02T11:51:10.191Z,96054.8
2023-02-02T11:52:14.433Z,96050.6
2023-02-02T11:53:16.948Z,96053.4
2023-02-02T11:54:19.190Z,96044.9
2023-02-02T11:55:21.427Z,96062.1
2023-02-02T11:56:23.947Z,96054.6
2023-02-02T11:57:26.160Z,96047.3
2023-02-02T11:58:28.491Z,96046.5
2023-02-02T11:59:30.719Z,96052.6
2023-02-02T12:00:32.966Z,96041.5
2023-02-02T12:01:35.627Z,96049
2023-02-02T12:02:37.915Z,96049.1
2023-02-02T12:03:40.908Z,96054.9
2023-02-02T12:04:43.541Z,96047.9
2023-02-02T12:05:46.155Z,96048.7
2023-02-02T12:06:48.405Z,96072.3
2023-02-02T12:07:50.942Z,96051.1
2023-02-02T12:08:52.915Z,96051.4
2023-02-02T12:09:55.428Z,96034.7
2023-02-02T12:10:57.719Z,96047.5
2023-02-02T12:12:00.261Z,96053.3
2023-02-02T12:13:02.292Z,96048.1
2023-02-02T12:14:04.818Z,96052.9
2023-02-02T12:15:07.062Z,96044.2
2023-02-02T12:16:10.842Z,96047.8
2023-02-02T12:17:12.935Z,96044.4
2023-02-02T12:18:15.634Z,96057.2
2023-02-02T12:19:17.966Z,96051
2023-02-02T12:20:20.291Z,96057.4
2023-02-02T12:21:23.034Z,96052.3
2023-02-02T12:22:26.014Z,96051.1
2023-02-02T12:23:28.765Z,96064.5
2023-02-02T12:24:31.004Z,96055.3
2023-02-02T12:25:33.299Z,96053.6
2023-02-02T12:26:35.575Z,96052.6
2023-02-02T12:27:38.144Z,96051.7
2023-02-02T12:28:40.654Z,96044.2
2023-02-02T12:29:42.929Z,96053.9
2023-02-02T12:30:45.883Z,96049.1
2023-02-02T12:31:48.839Z,96044.4
2023-02-02T12:32:51.453Z,96047
2023-02-02T12:33:54.031Z,96045.7
2023-02-02T12:34:55.983Z,96031.5
2023-02-02T12:35:58.555Z,96039.4
2023-02-02T12:37:01.174Z,96030.3
2023-02-02T12:38:03.736Z,96040.2
2023-02-02T12:39:05.975Z,96044.6
2023-02-02T12:40:12.057Z,96047.5
2023-02-02T12:41:14.637Z,96033
2023-02-02T12:42:16.890Z,96046.6
2023-02-02T12:43:19.100Z,96039.3
2023-02-02T12:44:21.638Z,96046.1
2023-02-02T12:45:23.913Z,96038.3
2023-02-02T12:46:26.421Z,96033.4
2023-02-02T12:47:28.692Z,96055.7
2023-02-02T12:48:31.206Z,96042.7
2023-02-02T12:49:33.925Z,96043.1
2023-02-02T12:50:36.186Z,96035.7
2023-02-02T12:51:38.425Z,96046.3
2023-02-02T12:52:40.274Z,96046.2